Startpagina
METAR-TAF:

METAR-TAF

Vliegvelden :

Ndjamena, Tsjaad

breedte: 12-08N, lengte: 015-02E, hoogte: 295 m

Actueel weer

Dit bericht is 43 minuten geleden gemaakt, om 16:00 UTC
Wind 12 kt uit het oostnoordoosten
Temperatuur 42°C
Vochtigheid 10%
Druk 1005 hPa
Zicht 10 km of meer
geen wolken onder 1500 m en geen cumulonimbus

METAR: FTTJ 301600Z 07012KT CAVOK 42/04 Q1005 NOSIG

Tijdstip: 17:43 (16:43 UTC)

Verwachting

Dit bericht is 5 uur en het 43 minuten geleden gemaakt, om 11:00 UTC
Verwachting geldig van 30 om 12 UTC tot 01 om 18 UTC
Wind 8 kt uit variabele richting
Zicht: 6000 m
Tijdelijke
van 30 om 17 UTC tot 30 om 23 UTC
Zicht: 4000 m
Heiigheid
Kans 30% :
Tijdelijke
van 01 om 00 UTC tot 01 om 06 UTC
Wind 15 kt uit variabele richting met uitschieters tot 25 kt
Zicht: 2000 m
onweer, lichte regen, Stuifstof

TAF: FTTJ 301100Z 3012/0118 VRB08KT 6000 NSC TEMPO 3017/3023 4000 HZ PROB30 TEMPO 0100/0106 VRB15G25KT 2000 -TSRA BLDU

Waarnemingen en weersverwachtingen van meer dan 4000 vliegvelden (METAR en TAF).

De beschikbare stations zijn de gele en rode punten op de kaart.

Ga met uw muis naar het station om de naam te zien.

Klik dan om waarnemingen en weersverwachtingen te zien.

kaart wijzigen: klik op de groene knoppen met een zwart kruis om in te zoomen, op de groene knop met een streepje om uit te zoomen of op de groene pijlen voor aangrenzende kaarten.


METAR-TAF: